Triathlon du Salagou - 10/06/2017

Kids 1 6-9 ans Filles

36 participants classés


Retour au Sommaire - Signaler une erreur - Faire défiler





1 2 /fin /tout

page suivante ->

Pl Do. Nom Prénom Sx-Cat /cat Club TEMPS /sx Trans1 Tps1 Vit1 P1 Trans2 Tps2 Vit2 P2 Tps3 Vit3 P3
1 7 BILOT ADÈLE FPO 1 MAT MONTPELLIER 0:08:39.88 1 01:04.5 0:02:10.6 1,4 1 00:46.4 0:01:47.0 16,8 1 0:02:49.1 10,6 5
2 10 CALMELS ELYNE FPO 2 MAT MONTPELLIER 0:09:10.83 2 01:12.7 0:02:14.4 1,3 3 00:53.2 0:01:58.2 15,2 4 0:02:51.7 10,5 7
3 33 FATTORI CLARA FPO 3   0:09:19.00 3 01:25.0 0:02:16.1 1,3 4 00:55.0 0:01:57.9 15,3 3 0:02:41.8 11,1 3
4 6 REYNAUD HANAE FPO 4 MAT 0:09:21.29 4 01:06.2 0:02:12.0 1,4 2 00:52.7 0:01:55.9 15,5 2 0:03:12.7 9,3 23
5 38 THOMAS ELISA FPO 5   0:10:27.55 5 01:28.1 0:02:17.1 1,3 5 01:13.3 0:02:28.6 12,1 9 0:02:59.9 10 15
6 29 CATHALA LYLIA FPO 6   0:10:33.24 6 01:44.9 0:02:32.0 1,2 14 00:49.6 0:02:31.9 11,8 14 0:02:54.9 10,3 9
7 8 SAFI ANNA FPO 7 MAT MONTPELLIER 0:10:34.31 7 01:34.2 0:02:40.8 1,1 25 00:48.8 0:02:32.4 11,8 16 0:02:56.6 10,2 10
8 15 LEGRAIS LOULÉA FPO 8 TCVD 0:10:39.02 8 01:26.4 0:02:39.6 1,1 23 01:01.7 0:02:22.1 12,7 6 0:03:07.5 9,6 21
9 9 CALDIES ALICE FPO 9 MAT MONTPELLIER 0:10:42.25 9 01:23.5 0:02:47.1 1,1 28 00:00.6 0:02:26.2 12,3 8 0:03:05.9 9,7 19
10 32 CHIRICO LENA FPO 10   0:10:48.45 10 01:36.8 0:02:27.4 1,2 8 01:02.0 0:02:24.7 12,4 7 0:03:16.3 9,2 25
11 40 ZANIOLO PAULINE FPO 11   0:10:53.47 11 02:05.4 0:02:35.2 1,2 19 00:55.5 0:02:34.9 11,6 19 0:02:40.4 11,2 2
12 30 CHENAUD SIBYLLE FPO 12   0:10:56.91 12 01:45.0 0:02:32.3 1,2 16 01:00.1 0:02:33.6 11,7 17 0:03:04.9 9,7 17
13 36 LE BEUZE SOIZIK FPO 13   0:10:59.32 13 02:11.9 0:02:28.0 1,2 9 00:53.7 0:02:34.0 11,7 18 0:02:52.0 10,5 8
14 22 MARTINEZ ALICE FPO 14   0:11:00.16 14 01:50.2 0:02:32.1 1,2 15 00:49.4 0:02:30.3 12 13 0:03:17.8 9,1 28
15 13 LOPEZ LORENA FPU 1 Pas de club. 0:11:20.35 15 02:09.2 0:02:29.2 1,2 10 01:04.4 0:02:21.3 12,7 5 0:03:15.8 9,2 24
16 14 DELORME LOUANE FPO 15 SALINDRES TRIATHLON 0:11:23.74 16 02:09.1 0:02:22.7 1,3 7 01:02.5 0:02:29.5 12 10 0:03:17.7 9,1 27
17 20 LETHUILLIER ELOISE FPO 16   0:11:25.71 17 01:57.0 0:02:30.5 1,2 11 01:01.5 0:02:30.0 12 11 0:03:24.6 8,8 30
18 23 MAURY JADE FPO 17   0:11:30.95 18 02:17.3 0:02:30.7 1,2 12 00:55.6 0:02:48.4 10,7 25 0:02:57.0 10,2 12
19 5 PAUGET AGATHE FPO 18 LOUPIAN TRI NATURE 0:11:36.78 19 01:38.5 0:02:40.6 1,1 24 01:03.7 0:03:02.5 9,9 31 0:03:09.8 9,5 22
20 27 BONNANS ELOISE FMP 1   0:11:45.95 20 01:50.1 0:02:49.5 1,1 32 01:11.5 0:02:51.0 10,5 27 0:03:03.8 9,8 16

Aucun commentaires pour le moment, donnez votre avis, vos impressions avant, pendant! et après la course

Déjà membre? Identifiez-vous pour commenter l'épreuve ou créer un compte